sensor_id;sensor_type;location;lat;lon;timestamp;temperature;humidity
22114;DHT22;11223;49.968;9.062;2022-09-09T00:04:38;13.80;99.90
22114;DHT22;11223;49.968;9.062;2022-09-09T00:09:57;13.90;99.90
22114;DHT22;11223;49.968;9.062;2022-09-09T00:12:42;13.80;99.90
22114;DHT22;11223;49.968;9.062;2022-09-09T00:15:19;13.90;99.90
22114;DHT22;11223;49.968;9.062;2022-09-09T00:23:30;14.00;99.90
22114;DHT22;11223;49.968;9.062;2022-09-09T00:28:52;14.10;99.90
22114;DHT22;11223;49.968;9.062;2022-09-09T00:31:25;14.00;99.90
22114;DHT22;11223;49.968;9.062;2022-09-09T00:33:53;14.00;99.90
22114;DHT22;11223;49.968;9.062;2022-09-09T00:36:22;14.00;99.90
22114;DHT22;11223;49.968;9.062;2022-09-09T00:38:57;14.00;99.90
22114;DHT22;11223;49.968;9.062;2022-09-09T00:41:42;14.00;99.90
22114;DHT22;11223;49.968;9.062;2022-09-09T00:44:56;14.00;99.90
22114;DHT22;11223;49.968;9.062;2022-09-09T00:52:47;13.90;99.90
22114;DHT22;11223;49.968;9.062;2022-09-09T00:55:21;13.90;99.90
22114;DHT22;11223;49.968;9.062;2022-09-09T00:57:52;13.90;99.90
22114;DHT22;11223;49.968;9.062;2022-09-09T01:00:30;13.80;99.90
22114;DHT22;11223;49.968;9.062;2022-09-09T01:03:17;13.80;99.90
22114;DHT22;11223;49.968;9.062;2022-09-09T01:05:54;13.80;99.90
22114;DHT22;11223;49.968;9.062;2022-09-09T01:14:33;13.60;99.90
22114;DHT22;11223;49.968;9.062;2022-09-09T01:19:45;13.60;99.90
22114;DHT22;11223;49.968;9.062;2022-09-09T01:26:02;13.70;99.90
22114;DHT22;11223;49.968;9.062;2022-09-09T01:28:29;13.70;99.90
22114;DHT22;11223;49.968;9.062;2022-09-09T01:30:56;13.60;99.90
22114;DHT22;11223;49.968;9.062;2022-09-09T01:33:22;13.60;99.90
22114;DHT22;11223;49.968;9.062;2022-09-09T01:36:34;13.60;99.90
22114;DHT22;11223;49.968;9.062;2022-09-09T01:39:04;13.50;99.90
22114;DHT22;11223;49.968;9.062;2022-09-09T01:41:30;13.40;99.90
22114;DHT22;11223;49.968;9.062;2022-09-09T01:43:56;13.50;99.90
22114;DHT22;11223;49.968;9.062;2022-09-09T01:46:23;13.40;99.90
22114;DHT22;11223;49.968;9.062;2022-09-09T01:48:51;13.50;99.90
22114;DHT22;11223;49.968;9.062;2022-09-09T01:51:17;13.50;99.90
22114;DHT22;11223;49.968;9.062;2022-09-09T01:53:43;13.40;99.90
22114;DHT22;11223;49.968;9.062;2022-09-09T02:04:39;13.30;99.90
22114;DHT22;11223;49.968;9.062;2022-09-09T02:07:23;13.30;99.90
22114;DHT22;11223;49.968;9.062;2022-09-09T02:10:02;13.30;99.90
22114;DHT22;11223;49.968;9.062;2022-09-09T02:12:30;13.30;99.90
22114;DHT22;11223;49.968;9.062;2022-09-09T02:15:01;13.20;99.90
22114;DHT22;11223;49.968;9.062;2022-09-09T02:17:32;13.20;99.90
22114;DHT22;11223;49.968;9.062;2022-09-09T02:20:07;13.20;99.90
22114;DHT22;11223;49.968;9.062;2022-09-09T02:22:34;13.20;99.90
22114;DHT22;11223;49.968;9.062;2022-09-09T02:25:02;13.10;99.90
22114;DHT22;11223;49.968;9.062;2022-09-09T02:27:30;13.20;99.90
22114;DHT22;11223;49.968;9.062;2022-09-09T02:29:57;13.20;99.90
22114;DHT22;11223;49.968;9.062;2022-09-09T02:32:25;13.20;99.90
22114;DHT22;11223;49.968;9.062;2022-09-09T02:35:01;13.20;99.90
22114;DHT22;11223;49.968;9.062;2022-09-09T02:37:31;13.20;99.90
22114;DHT22;11223;49.968;9.062;2022-09-09T02:39:58;13.20;99.90
22114;DHT22;11223;49.968;9.062;2022-09-09T02:42:24;13.20;99.90
22114;DHT22;11223;49.968;9.062;2022-09-09T02:44:50;13.20;99.90
22114;DHT22;11223;49.968;9.062;2022-09-09T02:58:27;13.20;99.90
22114;DHT22;11223;49.968;9.062;2022-09-09T03:00:53;13.20;99.90
22114;DHT22;11223;49.968;9.062;2022-09-09T03:03:20;13.30;99.90
22114;DHT22;11223;49.968;9.062;2022-09-09T03:05:47;13.30;99.90
22114;DHT22;11223;49.968;9.062;2022-09-09T03:08:13;13.30;99.90
22114;DHT22;11223;49.968;9.062;2022-09-09T03:10:39;13.30;99.90
22114;DHT22;11223;49.968;9.062;2022-09-09T03:13:05;13.30;99.90
22114;DHT22;11223;49.968;9.062;2022-09-09T03:15:31;13.30;99.90
22114;DHT22;11223;49.968;9.062;2022-09-09T03:17:58;13.30;99.90
22114;DHT22;11223;49.968;9.062;2022-09-09T03:20:25;13.30;99.90
22114;DHT22;11223;49.968;9.062;2022-09-09T03:22:52;13.30;99.90
22114;DHT22;11223;49.968;9.062;2022-09-09T03:25:18;13.30;99.90
22114;DHT22;11223;49.968;9.062;2022-09-09T03:27:43;13.40;99.90
22114;DHT22;11223;49.968;9.062;2022-09-09T03:30:09;13.40;99.90
22114;DHT22;11223;49.968;9.062;2022-09-09T03:32:35;13.40;99.90
22114;DHT22;11223;49.968;9.062;2022-09-09T03:35:01;13.40;99.90
22114;DHT22;11223;49.968;9.062;2022-09-09T03:37:26;13.40;99.90
22114;DHT22;11223;49.968;9.062;2022-09-09T03:39:52;13.40;99.90
22114;DHT22;11223;49.968;9.062;2022-09-09T03:42:20;13.40;99.90
22114;DHT22;11223;49.968;9.062;2022-09-09T03:44:46;13.40;99.90
22114;DHT22;11223;49.968;9.062;2022-09-09T03:47:19;13.40;99.90
22114;DHT22;11223;49.968;9.062;2022-09-09T03:49:47;13.30;99.90
22114;DHT22;11223;49.968;9.062;2022-09-09T03:52:13;13.30;99.90
22114;DHT22;11223;49.968;9.062;2022-09-09T03:54:39;13.30;99.90
22114;DHT22;11223;49.968;9.062;2022-09-09T03:57:06;13.30;99.90
22114;DHT22;11223;49.968;9.062;2022-09-09T03:59:32;13.40;99.90
22114;DHT22;11223;49.968;9.062;2022-09-09T04:01:57;13.30;99.90
22114;DHT22;11223;49.968;9.062;2022-09-09T04:04:24;13.30;99.90
22114;DHT22;11223;49.968;9.062;2022-09-09T04:06:51;13.30;99.90
22114;DHT22;11223;49.968;9.062;2022-09-09T04:09:17;13.30;99.90
22114;DHT22;11223;49.968;9.062;2022-09-09T04:11:43;13.30;99.90
22114;DHT22;11223;49.968;9.062;2022-09-09T04:14:08;13.30;99.90
22114;DHT22;11223;49.968;9.062;2022-09-09T04:16:34;13.20;99.90
22114;DHT22;11223;49.968;9.062;2022-09-09T04:19:03;13.20;99.90
22114;DHT22;11223;49.968;9.062;2022-09-09T04:21:30;13.20;99.90
22114;DHT22;11223;49.968;9.062;2022-09-09T04:23:55;13.20;99.90
22114;DHT22;11223;49.968;9.062;2022-09-09T04:26:21;13.10;99.90
22114;DHT22;11223;49.968;9.062;2022-09-09T04:28:47;13.10;99.90
22114;DHT22;11223;49.968;9.062;2022-09-09T04:31:21;13.00;99.90
22114;DHT22;11223;49.968;9.062;2022-09-09T04:33:49;13.00;99.90
22114;DHT22;11223;49.968;9.062;2022-09-09T04:36:15;13.00;99.90
22114;DHT22;11223;49.968;9.062;2022-09-09T04:38:40;12.90;99.90
22114;DHT22;11223;49.968;9.062;2022-09-09T04:41:07;12.90;99.90
22114;DHT22;11223;49.968;9.062;2022-09-09T04:43:33;12.90;99.90
22114;DHT22;11223;49.968;9.062;2022-09-09T04:45:58;12.90;99.90
22114;DHT22;11223;49.968;9.062;2022-09-09T04:48:24;12.90;99.90
22114;DHT22;11223;49.968;9.062;2022-09-09T04:51:08;12.90;99.90
22114;DHT22;11223;49.968;9.062;2022-09-09T04:53:34;12.90;99.90
22114;DHT22;11223;49.968;9.062;2022-09-09T04:56:10;12.90;99.90
22114;DHT22;11223;49.968;9.062;2022-09-09T04:58:37;12.90;99.90
22114;DHT22;11223;49.968;9.062;2022-09-09T05:01:08;12.80;99.90
22114;DHT22;11223;49.968;9.062;2022-09-09T05:03:34;12.80;99.90
22114;DHT22;11223;49.968;9.062;2022-09-09T05:06:05;12.80;99.90
22114;DHT22;11223;49.968;9.062;2022-09-09T05:08:31;12.80;99.90
22114;DHT22;11223;49.968;9.062;2022-09-09T05:10:57;12.80;99.90
22114;DHT22;11223;49.968;9.062;2022-09-09T05:13:25;12.80;99.90
22114;DHT22;11223;49.968;9.062;2022-09-09T05:15:53;12.80;99.90
22114;DHT22;11223;49.968;9.062;2022-09-09T05:18:19;12.80;99.90
22114;DHT22;11223;49.968;9.062;2022-09-09T05:20:44;12.80;99.90
22114;DHT22;11223;49.968;9.062;2022-09-09T05:23:10;12.80;99.90
22114;DHT22;11223;49.968;9.062;2022-09-09T05:25:38;12.80;99.90
22114;DHT22;11223;49.968;9.062;2022-09-09T05:28:04;12.90;99.90
22114;DHT22;11223;49.968;9.062;2022-09-09T05:30:30;12.90;99.90
22114;DHT22;11223;49.968;9.062;2022-09-09T05:32:56;12.90;99.90
22114;DHT22;11223;49.968;9.062;2022-09-09T05:35:22;13.00;99.90
22114;DHT22;11223;49.968;9.062;2022-09-09T05:37:48;13.10;99.90
22114;DHT22;11223;49.968;9.062;2022-09-09T05:40:14;13.20;99.90
22114;DHT22;11223;49.968;9.062;2022-09-09T05:42:40;13.30;99.90
22114;DHT22;11223;49.968;9.062;2022-09-09T05:45:07;13.40;99.90
22114;DHT22;11223;49.968;9.062;2022-09-09T05:47:33;13.50;99.90
22114;DHT22;11223;49.968;9.062;2022-09-09T05:49:59;13.60;99.90
22114;DHT22;11223;49.968;9.062;2022-09-09T05:52:24;13.70;99.90
22114;DHT22;11223;49.968;9.062;2022-09-09T05:54:51;13.80;99.90
22114;DHT22;11223;49.968;9.062;2022-09-09T05:57:17;13.90;99.90
22114;DHT22;11223;49.968;9.062;2022-09-09T05:59:44;14.00;99.90
22114;DHT22;11223;49.968;9.062;2022-09-09T06:02:10;14.20;99.90
22114;DHT22;11223;49.968;9.062;2022-09-09T06:04:35;14.30;99.90
22114;DHT22;11223;49.968;9.062;2022-09-09T06:07:01;14.40;99.90
22114;DHT22;11223;49.968;9.062;2022-09-09T06:09:27;14.40;99.90
22114;DHT22;11223;49.968;9.062;2022-09-09T06:11:52;14.50;99.90
22114;DHT22;11223;49.968;9.062;2022-09-09T06:14:19;14.60;99.90
22114;DHT22;11223;49.968;9.062;2022-09-09T06:16:45;14.70;99.90
22114;DHT22;11223;49.968;9.062;2022-09-09T06:19:11;14.80;99.90
22114;DHT22;11223;49.968;9.062;2022-09-09T06:21:38;14.90;99.90
22114;DHT22;11223;49.968;9.062;2022-09-09T06:24:04;14.90;99.90
22114;DHT22;11223;49.968;9.062;2022-09-09T06:26:32;14.90;99.90
22114;DHT22;11223;49.968;9.062;2022-09-09T06:28:59;14.90;99.90
22114;DHT22;11223;49.968;9.062;2022-09-09T06:31:26;14.90;99.90
22114;DHT22;11223;49.968;9.062;2022-09-09T06:33:56;15.00;99.90
22114;DHT22;11223;49.968;9.062;2022-09-09T06:36:30;15.00;99.90
22114;DHT22;11223;49.968;9.062;2022-09-09T06:38:56;15.10;99.90
22114;DHT22;11223;49.968;9.062;2022-09-09T06:41:24;15.20;99.90
22114;DHT22;11223;49.968;9.062;2022-09-09T06:43:51;15.20;99.90
22114;DHT22;11223;49.968;9.062;2022-09-09T06:46:22;15.30;99.90
22114;DHT22;11223;49.968;9.062;2022-09-09T06:48:48;15.40;99.90
22114;DHT22;11223;49.968;9.062;2022-09-09T06:53:42;15.60;99.90
22114;DHT22;11223;49.968;9.062;2022-09-09T06:56:29;15.70;99.90
22114;DHT22;11223;49.968;9.062;2022-09-09T06:58:56;15.80;99.90
22114;DHT22;11223;49.968;9.062;2022-09-09T07:01:24;16.00;99.90
22114;DHT22;11223;49.968;9.062;2022-09-09T07:03:52;16.20;99.90
22114;DHT22;11223;49.968;9.062;2022-09-09T07:06:21;16.40;99.90
22114;DHT22;11223;49.968;9.062;2022-09-09T07:09:07;16.60;99.90
22114;DHT22;11223;49.968;9.062;2022-09-09T07:11:39;16.80;99.90
22114;DHT22;11223;49.968;9.062;2022-09-09T07:14:05;17.00;99.90
22114;DHT22;11223;49.968;9.062;2022-09-09T07:16:30;17.20;99.90
22114;DHT22;11223;49.968;9.062;2022-09-09T07:18:58;17.30;99.90
22114;DHT22;11223;49.968;9.062;2022-09-09T07:21:27;17.50;99.90
22114;DHT22;11223;49.968;9.062;2022-09-09T07:23:53;17.80;99.90
22114;DHT22;11223;49.968;9.062;2022-09-09T07:26:20;17.90;99.90
22114;DHT22;11223;49.968;9.062;2022-09-09T07:28:47;18.00;99.90
22114;DHT22;11223;49.968;9.062;2022-09-09T07:31:18;18.10;99.90
22114;DHT22;11223;49.968;9.062;2022-09-09T07:33:45;18.30;99.90
22114;DHT22;11223;49.968;9.062;2022-09-09T07:36:31;18.50;99.90
22114;DHT22;11223;49.968;9.062;2022-09-09T07:39:00;18.80;99.90
22114;DHT22;11223;49.968;9.062;2022-09-09T07:41:30;18.90;99.90
22114;DHT22;11223;49.968;9.062;2022-09-09T07:43:57;19.00;99.90
22114;DHT22;11223;49.968;9.062;2022-09-09T07:46:26;19.00;99.90
22114;DHT22;11223;49.968;9.062;2022-09-09T07:48:55;19.00;99.90
22114;DHT22;11223;49.968;9.062;2022-09-09T07:51:33;18.90;99.90
22114;DHT22;11223;49.968;9.062;2022-09-09T07:54:04;18.80;99.90
22114;DHT22;11223;49.968;9.062;2022-09-09T07:56:30;18.70;99.90
22114;DHT22;11223;49.968;9.062;2022-09-09T07:58:57;18.70;99.90
22114;DHT22;11223;49.968;9.062;2022-09-09T08:04:01;18.50;99.90
22114;DHT22;11223;49.968;9.062;2022-09-09T08:06:28;18.40;99.90
22114;DHT22;11223;49.968;9.062;2022-09-09T08:08:55;18.40;99.90
22114;DHT22;11223;49.968;9.062;2022-09-09T08:11:22;18.40;99.90
22114;DHT22;11223;49.968;9.062;2022-09-09T08:13:49;18.30;99.90
22114;DHT22;11223;49.968;9.062;2022-09-09T08:16:23;18.40;99.90
22114;DHT22;11223;49.968;9.062;2022-09-09T08:18:50;18.40;99.90
22114;DHT22;11223;49.968;9.062;2022-09-09T08:21:22;18.50;99.90
22114;DHT22;11223;49.968;9.062;2022-09-09T08:23:51;18.60;99.90
22114;DHT22;11223;49.968;9.062;2022-09-09T08:26:22;18.60;99.90
22114;DHT22;11223;49.968;9.062;2022-09-09T08:28:52;18.70;99.90
22114;DHT22;11223;49.968;9.062;2022-09-09T08:31:24;18.70;99.90
22114;DHT22;11223;49.968;9.062;2022-09-09T08:33:50;18.80;99.90
22114;DHT22;11223;49.968;9.062;2022-09-09T08:36:18;18.80;99.90
22114;DHT22;11223;49.968;9.062;2022-09-09T08:38:47;18.90;99.90
22114;DHT22;11223;49.968;9.062;2022-09-09T08:47:01;19.40;99.90
22114;DHT22;11223;49.968;9.062;2022-09-09T08:51:55;19.50;99.90
22114;DHT22;11223;49.968;9.062;2022-09-09T08:54:21;19.50;99.90
22114;DHT22;11223;49.968;9.062;2022-09-09T08:56:48;19.60;99.90
22114;DHT22;11223;49.968;9.062;2022-09-09T08:59:17;19.70;99.90
22114;DHT22;11223;49.968;9.062;2022-09-09T09:07:28;20.50;99.90
22114;DHT22;11223;49.968;9.062;2022-09-09T09:10:35;20.80;99.90
22114;DHT22;11223;49.968;9.062;2022-09-09T09:13:01;21.00;99.90
22114;DHT22;11223;49.968;9.062;2022-09-09T09:15:36;21.50;99.90
22114;DHT22;11223;49.968;9.062;2022-09-09T09:18:04;21.70;99.90
22114;DHT22;11223;49.968;9.062;2022-09-09T09:21:12;21.70;99.90
22114;DHT22;11223;49.968;9.062;2022-09-09T09:24:04;21.70;99.90
22114;DHT22;11223;49.968;9.062;2022-09-09T09:26:34;21.60;99.90
22114;DHT22;11223;49.968;9.062;2022-09-09T09:29:12;21.50;99.90
22114;DHT22;11223;49.968;9.062;2022-09-09T09:31:38;21.30;99.90
22114;DHT22;11223;49.968;9.062;2022-09-09T09:34:03;21.10;99.90
22114;DHT22;11223;49.968;9.062;2022-09-09T09:36:44;21.00;99.90
22114;DHT22;11223;49.968;9.062;2022-09-09T09:39:24;20.70;99.90
22114;DHT22;11223;49.968;9.062;2022-09-09T09:41:51;20.60;99.90
22114;DHT22;11223;49.968;9.062;2022-09-09T09:44:25;20.60;99.90
22114;DHT22;11223;49.968;9.062;2022-09-09T09:46:52;20.60;99.90
22114;DHT22;11223;49.968;9.062;2022-09-09T09:49:18;20.70;99.90
22114;DHT22;11223;49.968;9.062;2022-09-09T09:51:44;20.90;99.90
22114;DHT22;11223;49.968;9.062;2022-09-09T09:56:39;21.30;99.90
22114;DHT22;11223;49.968;9.062;2022-09-09T09:59:05;21.30;99.90
22114;DHT22;11223;49.968;9.062;2022-09-09T10:01:44;21.30;99.90
22114;DHT22;11223;49.968;9.062;2022-09-09T10:04:21;21.20;99.90
22114;DHT22;11223;49.968;9.062;2022-09-09T10:06:49;21.10;99.90
22114;DHT22;11223;49.968;9.062;2022-09-09T10:09:27;21.00;99.90
22114;DHT22;11223;49.968;9.062;2022-09-09T10:17:27;20.60;99.90
22114;DHT22;11223;49.968;9.062;2022-09-09T10:25:44;20.80;99.90
22114;DHT22;11223;49.968;9.062;2022-09-09T10:36:23;20.90;99.90
22114;DHT22;11223;49.968;9.062;2022-09-09T10:38:57;20.90;99.90
22114;DHT22;11223;49.968;9.062;2022-09-09T10:41:56;20.90;99.90
22114;DHT22;11223;49.968;9.062;2022-09-09T10:52:41;21.90;99.90
22114;DHT22;11223;49.968;9.062;2022-09-09T10:55:17;22.10;99.90
22114;DHT22;11223;49.968;9.062;2022-09-09T10:57:58;22.20;99.90
22114;DHT22;11223;49.968;9.062;2022-09-09T11:00:25;22.30;99.90
22114;DHT22;11223;49.968;9.062;2022-09-09T11:03:02;22.60;99.90
22114;DHT22;11223;49.968;9.062;2022-09-09T11:05:39;22.60;99.90
22114;DHT22;11223;49.968;9.062;2022-09-09T11:08:12;22.50;99.90
22114;DHT22;11223;49.968;9.062;2022-09-09T11:10:51;22.50;99.90
22114;DHT22;11223;49.968;9.062;2022-09-09T11:13:24;22.60;99.90
22114;DHT22;11223;49.968;9.062;2022-09-09T11:15:58;22.70;99.90
22114;DHT22;11223;49.968;9.062;2022-09-09T11:18:38;23.00;99.90
22114;DHT22;11223;49.968;9.062;2022-09-09T11:21:27;23.20;99.90
22114;DHT22;11223;49.968;9.062;2022-09-09T11:23:57;23.20;99.90
22114;DHT22;11223;49.968;9.062;2022-09-09T11:26:47;23.10;99.90
22114;DHT22;11223;49.968;9.062;2022-09-09T11:29:35;22.90;99.90
22114;DHT22;11223;49.968;9.062;2022-09-09T11:35:03;23.20;99.90
22114;DHT22;11223;49.968;9.062;2022-09-09T11:40:44;23.50;99.90
22114;DHT22;11223;49.968;9.062;2022-09-09T11:43:17;23.10;99.90
22114;DHT22;11223;49.968;9.062;2022-09-09T11:45:52;22.80;99.90
22114;DHT22;11223;49.968;9.062;2022-09-09T11:48:29;22.50;99.90
22114;DHT22;11223;49.968;9.062;2022-09-09T11:51:03;22.10;99.90
22114;DHT22;11223;49.968;9.062;2022-09-09T11:53:31;21.80;99.90
22114;DHT22;11223;49.968;9.062;2022-09-09T11:56:03;21.60;99.90
22114;DHT22;11223;49.968;9.062;2022-09-09T11:58:43;21.40;99.90
22114;DHT22;11223;49.968;9.062;2022-09-09T12:01:26;21.20;99.90
22114;DHT22;11223;49.968;9.062;2022-09-09T12:04:05;21.00;99.90
22114;DHT22;11223;49.968;9.062;2022-09-09T12:06:45;20.90;99.90
22114;DHT22;11223;49.968;9.062;2022-09-09T12:09:28;20.80;99.90
22114;DHT22;11223;49.968;9.062;2022-09-09T12:12:22;21.20;99.90
22114;DHT22;11223;49.968;9.062;2022-09-09T12:17:48;21.30;99.90
22114;DHT22;11223;49.968;9.062;2022-09-09T12:20:22;21.30;99.90
22114;DHT22;11223;49.968;9.062;2022-09-09T12:23:19;21.60;99.90
22114;DHT22;11223;49.968;9.062;2022-09-09T12:26:41;21.90;99.90
22114;DHT22;11223;49.968;9.062;2022-09-09T12:29:02;22.50;99.90
22114;DHT22;11223;49.968;9.062;2022-09-09T12:31:41;23.10;99.90
22114;DHT22;11223;49.968;9.062;2022-09-09T12:34:19;23.30;99.90
22114;DHT22;11223;49.968;9.062;2022-09-09T12:36:57;23.30;99.90
22114;DHT22;11223;49.968;9.062;2022-09-09T12:39:47;23.50;99.90
22114;DHT22;11223;49.968;9.062;2022-09-09T12:42:22;23.80;99.90
22114;DHT22;11223;49.968;9.062;2022-09-09T12:44:56;23.80;99.90
22114;DHT22;11223;49.968;9.062;2022-09-09T12:47:27;23.60;99.90
22114;DHT22;11223;49.968;9.062;2022-09-09T12:49:54;23.50;99.90
22114;DHT22;11223;49.968;9.062;2022-09-09T12:52:35;23.40;99.90
22114;DHT22;11223;49.968;9.062;2022-09-09T12:55:03;23.30;99.90
22114;DHT22;11223;49.968;9.062;2022-09-09T12:57:35;23.10;99.90
22114;DHT22;11223;49.968;9.062;2022-09-09T13:00:17;23.10;99.90
22114;DHT22;11223;49.968;9.062;2022-09-09T13:05:28;22.90;99.90
22114;DHT22;11223;49.968;9.062;2022-09-09T13:08:07;22.80;99.90
22114;DHT22;11223;49.968;9.062;2022-09-09T13:10:43;22.50;99.90
22114;DHT22;11223;49.968;9.062;2022-09-09T13:13:19;22.30;99.90
22114;DHT22;11223;49.968;9.062;2022-09-09T13:15:56;22.10;99.90
22114;DHT22;11223;49.968;9.062;2022-09-09T13:18:27;22.00;99.90
22114;DHT22;11223;49.968;9.062;2022-09-09T13:20:54;21.90;99.90
22114;DHT22;11223;49.968;9.062;2022-09-09T13:23:20;21.80;99.90
22114;DHT22;11223;49.968;9.062;2022-09-09T13:26:01;21.70;99.90
22114;DHT22;11223;49.968;9.062;2022-09-09T13:28:28;21.70;99.90
22114;DHT22;11223;49.968;9.062;2022-09-09T13:31:02;21.70;99.90
22114;DHT22;11223;49.968;9.062;2022-09-09T13:33:46;21.60;99.90
22114;DHT22;11223;49.968;9.062;2022-09-09T13:36:12;21.60;99.90
22114;DHT22;11223;49.968;9.062;2022-09-09T14:31:19;20.20;99.90
22114;DHT22;11223;49.968;9.062;2022-09-09T14:34:24;20.40;99.90
22114;DHT22;11223;49.968;9.062;2022-09-09T14:37:32;20.70;99.90
22114;DHT22;11223;49.968;9.062;2022-09-09T14:40:58;20.90;99.90
22114;DHT22;11223;49.968;9.062;2022-09-09T14:44:24;21.10;99.90
22114;DHT22;11223;49.968;9.062;2022-09-09T14:47:51;21.20;99.90
22114;DHT22;11223;49.968;9.062;2022-09-09T14:54:26;21.30;99.90
22114;DHT22;11223;49.968;9.062;2022-09-09T14:57:33;21.30;99.90
22114;DHT22;11223;49.968;9.062;2022-09-09T15:01:24;21.30;99.90
22114;DHT22;11223;49.968;9.062;2022-09-09T15:04:32;21.30;99.90
22114;DHT22;11223;49.968;9.062;2022-09-09T15:11:27;21.10;99.90
22114;DHT22;11223;49.968;9.062;2022-09-09T15:18:13;20.90;99.90
22114;DHT22;11223;49.968;9.062;2022-09-09T15:24:37;20.60;99.90
22114;DHT22;11223;49.968;9.062;2022-09-09T15:28:03;20.50;99.90
22114;DHT22;11223;49.968;9.062;2022-09-09T15:30:50;20.40;99.90
22114;DHT22;11223;49.968;9.062;2022-09-09T15:34:08;20.30;99.90
22114;DHT22;11223;49.968;9.062;2022-09-09T15:37:34;20.30;99.90
22114;DHT22;11223;49.968;9.062;2022-09-09T15:41:01;20.20;99.90
22114;DHT22;11223;49.968;9.062;2022-09-09T15:44:27;20.10;99.90
22114;DHT22;11223;49.968;9.062;2022-09-09T15:47:36;20.00;99.90
22114;DHT22;11223;49.968;9.062;2022-09-09T15:51:03;20.00;99.90
22114;DHT22;11223;49.968;9.062;2022-09-09T15:54:20;19.90;99.90
22114;DHT22;11223;49.968;9.062;2022-09-09T15:57:24;19.80;99.90
22114;DHT22;11223;49.968;9.062;2022-09-09T16:00:52;19.80;99.90
22114;DHT22;11223;49.968;9.062;2022-09-09T16:04:19;19.80;99.90
22114;DHT22;11223;49.968;9.062;2022-09-09T16:07:45;19.90;99.90
22114;DHT22;11223;49.968;9.062;2022-09-09T16:11:27;19.90;99.90
22114;DHT22;11223;49.968;9.062;2022-09-09T16:17:26;19.90;99.90
22114;DHT22;11223;49.968;9.062;2022-09-09T16:21:17;19.90;99.90
22114;DHT22;11223;49.968;9.062;2022-09-09T16:24:19;19.80;99.90
22114;DHT22;11223;49.968;9.062;2022-09-09T16:30:51;19.60;99.90
22114;DHT22;11223;49.968;9.062;2022-09-09T16:33:57;19.50;99.90
22114;DHT22;11223;49.968;9.062;2022-09-09T16:37:24;19.40;99.90
22114;DHT22;11223;49.968;9.062;2022-09-09T16:43:58;19.30;99.90
22114;DHT22;11223;49.968;9.062;2022-09-09T16:47:23;19.20;99.90
22114;DHT22;11223;49.968;9.062;2022-09-09T16:50:40;19.10;99.90
22114;DHT22;11223;49.968;9.062;2022-09-09T16:54:08;19.10;99.90
22114;DHT22;11223;49.968;9.062;2022-09-09T17:00:41;18.90;99.90
22114;DHT22;11223;49.968;9.062;2022-09-09T17:04:07;18.80;99.90
22114;DHT22;11223;49.968;9.062;2022-09-09T17:07:12;18.60;99.90
22114;DHT22;11223;49.968;9.062;2022-09-09T17:11:04;18.50;99.90
22114;DHT22;11223;49.968;9.062;2022-09-09T17:14:04;18.50;99.90
22114;DHT22;11223;49.968;9.062;2022-09-09T17:17:19;18.40;99.90
22114;DHT22;11223;49.968;9.062;2022-09-09T17:20:52;18.20;99.90
22114;DHT22;11223;49.968;9.062;2022-09-09T17:23:59;18.10;99.90
22114;DHT22;11223;49.968;9.062;2022-09-09T17:34:13;17.70;99.90
22114;DHT22;11223;49.968;9.062;2022-09-09T17:37:39;17.60;99.90
22114;DHT22;11223;49.968;9.062;2022-09-09T17:40:44;17.50;99.90
22114;DHT22;11223;49.968;9.062;2022-09-09T17:43:51;17.40;99.90
22114;DHT22;11223;49.968;9.062;2022-09-09T17:47:19;17.30;99.90
22114;DHT22;11223;49.968;9.062;2022-09-09T17:51:11;17.30;99.90
22114;DHT22;11223;49.968;9.062;2022-09-09T17:54:04;17.30;99.90
22114;DHT22;11223;49.968;9.062;2022-09-09T17:57:41;17.20;99.90
22114;DHT22;11223;49.968;9.062;2022-09-09T18:00:42;17.10;99.90
22114;DHT22;11223;49.968;9.062;2022-09-09T18:03:38;17.00;99.90
22114;DHT22;11223;49.968;9.062;2022-09-09T18:07:06;16.90;99.90
22114;DHT22;11223;49.968;9.062;2022-09-09T18:10:12;16.80;99.90
22114;DHT22;11223;49.968;9.062;2022-09-09T18:16:23;16.60;99.90
22114;DHT22;11223;49.968;9.062;2022-09-09T18:22:51;16.50;99.90
22114;DHT22;11223;49.968;9.062;2022-09-09T18:26:22;16.40;99.90
22114;DHT22;11223;49.968;9.062;2022-09-09T18:29:46;16.30;99.90
22114;DHT22;11223;49.968;9.062;2022-09-09T18:33:12;16.30;99.90
22114;DHT22;11223;49.968;9.062;2022-09-09T18:43:48;16.00;99.90
22114;DHT22;11223;49.968;9.062;2022-09-09T18:47:14;16.00;99.90
22114;DHT22;11223;49.968;9.062;2022-09-09T18:58:15;16.00;99.90
22114;DHT22;11223;49.968;9.062;2022-09-09T19:01:03;16.00;99.90
22114;DHT22;11223;49.968;9.062;2022-09-09T19:04:11;16.00;99.90
22114;DHT22;11223;49.968;9.062;2022-09-09T19:07:37;16.10;99.90
22114;DHT22;11223;49.968;9.062;2022-09-09T19:14:22;16.10;99.90
22114;DHT22;11223;49.968;9.062;2022-09-09T19:20:54;16.20;99.90
22114;DHT22;11223;49.968;9.062;2022-09-09T19:27:47;16.20;99.90
22114;DHT22;11223;49.968;9.062;2022-09-09T19:31:17;16.20;99.90
22114;DHT22;11223;49.968;9.062;2022-09-09T19:34:33;16.20;99.90
22114;DHT22;11223;49.968;9.062;2022-09-09T19:37:59;16.30;99.90
22114;DHT22;11223;49.968;9.062;2022-09-09T19:41:26;16.30;99.90
22114;DHT22;11223;49.968;9.062;2022-09-09T19:44:52;16.30;99.90
22114;DHT22;11223;49.968;9.062;2022-09-09T19:48:18;16.20;99.90
22114;DHT22;11223;49.968;9.062;2022-09-09T19:51:44;16.20;99.90
22114;DHT22;11223;49.968;9.062;2022-09-09T19:55:11;16.10;99.90
22114;DHT22;11223;49.968;9.062;2022-09-09T19:58:38;16.00;99.90
22114;DHT22;11223;49.968;9.062;2022-09-09T20:02:03;15.90;99.90
22114;DHT22;11223;49.968;9.062;2022-09-09T20:05:30;15.90;99.90
22114;DHT22;11223;49.968;9.062;2022-09-09T20:12:01;15.70;99.90
22114;DHT22;11223;49.968;9.062;2022-09-09T20:15:29;15.60;99.90
22114;DHT22;11223;49.968;9.062;2022-09-09T20:18:56;15.50;99.90
22114;DHT22;11223;49.968;9.062;2022-09-09T20:29:05;15.20;99.90
22114;DHT22;11223;49.968;9.062;2022-09-09T20:32:31;15.10;99.90
22114;DHT22;11223;49.968;9.062;2022-09-09T20:35:48;15.00;99.90
22114;DHT22;11223;49.968;9.062;2022-09-09T20:42:40;14.90;99.90
22114;DHT22;11223;49.968;9.062;2022-09-09T20:46:07;14.80;99.90
22114;DHT22;11223;49.968;9.062;2022-09-09T20:49:34;14.80;99.90
22114;DHT22;11223;49.968;9.062;2022-09-09T20:53:03;14.70;99.90
22114;DHT22;11223;49.968;9.062;2022-09-09T21:00:02;14.60;99.90
22114;DHT22;11223;49.968;9.062;2022-09-09T21:06:39;14.60;99.90
22114;DHT22;11223;49.968;9.062;2022-09-09T21:10:07;14.50;99.90
22114;DHT22;11223;49.968;9.062;2022-09-09T21:13:21;14.50;99.90
22114;DHT22;11223;49.968;9.062;2022-09-09T21:16:38;14.50;99.90
22114;DHT22;11223;49.968;9.062;2022-09-09T21:20:05;14.50;99.90
22114;DHT22;11223;49.968;9.062;2022-09-09T21:23:32;14.50;99.90
22114;DHT22;11223;49.968;9.062;2022-09-09T21:26:38;14.50;99.90